This is the latest recevied weather packets stored in our database for station/object F8BPU-10. If no packets are shown the sender has not sent any weather packets the latest 10 day(s).
| Time | Temp. | Humidity | Pressure | Rain* | Wind** | Luminosity | Snow |
|---|---|---|---|---|---|---|---|
| 1777823405 | 26.67° C | 38% | 1011.3 hPa | - | - | - | - |
| 1777822505 | 26.11° C | 39% | 1011.4 hPa | - | - | - | - |
| 1777821605 | 25.56° C | 40% | 1011.7 hPa | - | - | - | - |
| 1777820705 | 26.11° C | 39% | 1011.8 hPa | - | - | - | - |
| 1777819804 | 26.11° C | 38% | 1012.1 hPa | - | - | - | - |
| 1777818904 | 27.22° C | 36% | 1011.8 hPa | - | - | - | - |
| 1777818004 | 28.33° C | 33% | 1011.7 hPa | - | - | - | - |
| 1777817104 | 28.33° C | 33% | 1011.6 hPa | - | - | - | - |
| 1777816204 | 28.33° C | 33% | 1011.6 hPa | - | - | - | - |
| 1777815304 | 28.33° C | 32% | 1011.6 hPa | - | - | - | - |
| 1777814404 | 28.33° C | 33% | 1011.7 hPa | - | - | - | - |
| 1777813504 | 28.33° C | 33% | 1011.7 hPa | - | - | - | - |
| 1777812604 | 28.33° C | 33% | 1011.8 hPa | - | - | - | - |
| 1777811704 | 27.78° C | 33% | 1011.8 hPa | - | - | - | - |
| 1777810803 | 27.78° C | 33% | 1011.7 hPa | - | - | - | - |
| 1777809903 | 27.78° C | 33% | 1011.8 hPa | - | - | - | - |
| 1777809003 | 27.78° C | 34% | 1011.9 hPa | - | - | - | - |
| 1777808103 | 27.78° C | 34% | 1012 hPa | - | - | - | - |
| 1777807203 | 27.78° C | 35% | 1012.2 hPa | - | - | - | - |
| 1777806303 | 26.67° C | 37% | 1012.3 hPa | - | - | - | - |
| 1777805403 | 28.33° C | 34% | 1012.1 hPa | - | - | - | - |
| 1777804503 | 27.78° C | 34% | 1012.2 hPa | - | - | - | - |
| 1777803603 | 28.33° C | 32% | 1012.1 hPa | - | - | - | - |
| 1777802703 | 28.33° C | 32% | 1012.3 hPa | - | - | - | - |
| 1777801802 | 28.33° C | 32% | 1012.2 hPa | - | - | - | - |
* Rain since midnight (hover to see other rain measurements)
** Current wind speed in m/s (hover to see current wind gust speed)